createdAt,value
2017-10-19T00:01:43.149Z,12.93
2017-10-19T00:07:11.288Z,17.60
2017-10-19T00:12:40.192Z,13.27
2017-10-19T00:18:08.328Z,12.30
2017-10-19T00:23:37.245Z,13.20
2017-10-19T00:29:05.418Z,18.57
2017-10-19T00:34:33.556Z,13.93
2017-10-19T00:40:01.715Z,16.97
2017-10-19T00:45:29.842Z,12.33
2017-10-19T00:50:57.997Z,13.03
2017-10-19T00:56:26.935Z,18.13
2017-10-19T01:01:55.085Z,12.83
2017-10-19T01:07:25.148Z,12.13
2017-10-19T01:12:53.279Z,13.33
2017-10-19T01:18:22.231Z,8.63
2017-10-19T01:23:50.469Z,10.73
2017-10-19T01:29:18.604Z,9.80
2017-10-19T01:34:47.356Z,9.60
2017-10-19T01:40:15.534Z,11.73
2017-10-19T01:45:45.681Z,9.40
2017-10-19T01:51:13.893Z,14.00
2017-10-19T01:56:42.043Z,13.77
2017-10-19T02:02:11.169Z,10.90
2017-10-19T02:07:39.418Z,13.80
2017-10-19T02:13:07.555Z,26.27
2017-10-19T02:18:35.678Z,8.97
2017-10-19T02:24:04.667Z,43.57
2017-10-19T02:29:32.906Z,20.77
2017-10-19T02:35:01.969Z,21.47
2017-10-19T02:40:30.380Z,11.73
2017-10-19T02:45:58.517Z,8.97
2017-10-19T02:51:26.676Z,11.37
2017-10-19T02:56:55.684Z,12.07
2017-10-19T03:02:23.812Z,8.97
2017-10-19T03:07:52.711Z,7.40
2017-10-19T03:13:20.836Z,8.00
2017-10-19T03:18:49.735Z,9.47
2017-10-19T03:24:17.876Z,9.87
2017-10-19T03:29:46.252Z,9.13
2017-10-19T03:35:14.400Z,10.20
2017-10-19T03:40:42.602Z,6.50
2017-10-19T03:46:10.777Z,7.57
2017-10-19T03:51:38.911Z,7.20
2017-10-19T03:57:07.114Z,9.97
2017-10-19T04:02:36.039Z,8.33
2017-10-19T04:08:04.174Z,6.23
2017-10-19T04:13:32.468Z,6.00
2017-10-19T04:19:00.624Z,8.00
2017-10-19T04:24:28.907Z,8.40
2017-10-19T04:29:57.106Z,6.50
2017-10-19T04:35:25.275Z,13.00
2017-10-19T04:40:53.436Z,6.17
2017-10-19T04:46:21.589Z,8.40
2017-10-19T04:51:53.490Z,22.00
2017-10-19T04:57:21.664Z,14.00
2017-10-19T05:02:50.585Z,8.27
2017-10-19T05:08:18.749Z,6.53
2017-10-19T05:13:46.867Z,8.60
2017-10-19T05:19:15.784Z,6.87
2017-10-19T05:24:43.936Z,5.93
2017-10-19T05:30:12.081Z,5.30
2017-10-19T05:35:40.289Z,5.93
2017-10-19T05:41:08.432Z,8.03
2017-10-19T05:46:36.684Z,8.50
2017-10-19T05:52:04.833Z,5.97
2017-10-19T05:57:33.039Z,7.63
2017-10-19T06:03:01.213Z,7.40
2017-10-19T06:08:29.469Z,16.63
2017-10-19T06:13:58.387Z,10.53
2017-10-19T06:19:26.667Z,6.93
2017-10-19T06:24:54.800Z,9.90
2017-10-19T06:30:22.976Z,9.97
2017-10-19T06:35:51.108Z,20.40
2017-10-19T06:41:19.242Z,9.53
2017-10-19T06:46:47.388Z,6.67
2017-10-19T06:52:16.289Z,7.03
2017-10-19T06:57:44.436Z,9.93
2017-10-19T07:03:12.575Z,6.10
2017-10-19T07:08:45.979Z,8.23
2017-10-19T07:14:14.091Z,6.20
2017-10-19T07:19:42.290Z,6.20
2017-10-19T07:25:10.431Z,8.67
2017-10-19T07:30:39.365Z,6.10
2017-10-19T07:36:07.517Z,10.07
2017-10-19T07:41:35.663Z,6.53
2017-10-19T07:47:03.830Z,8.27
2017-10-19T07:52:32.027Z,10.33
2017-10-19T07:58:01.073Z,6.43
2017-10-19T08:03:29.215Z,7.57
2017-10-19T08:08:57.355Z,6.10
2017-10-19T08:14:25.605Z,11.43
2017-10-19T08:19:54.545Z,10.13
2017-10-19T08:25:22.688Z,4.90
2017-10-19T08:30:50.834Z,10.87
2017-10-19T08:36:18.997Z,11.67
2017-10-19T08:41:47.149Z,6.97
2017-10-19T08:47:15.324Z,6.87
2017-10-19T08:52:43.477Z,5.50
2017-10-19T08:58:11.624Z,4.40
2017-10-19T09:03:39.765Z,12.67
2017-10-19T09:09:07.903Z,5.43
2017-10-19T09:14:36.117Z,40.17
2017-10-19T09:20:04.284Z,5.70
2017-10-19T09:25:32.453Z,8.93
2017-10-19T09:31:00.591Z,6.67
2017-10-19T09:36:28.748Z,9.93
2017-10-19T09:41:56.917Z,14.93
2017-10-19T09:47:25.074Z,4.50
2017-10-19T09:52:53.228Z,9.07
2017-10-19T09:58:21.433Z,6.53
2017-10-19T10:03:49.621Z,9.57
2017-10-19T10:09:17.780Z,9.63
2017-10-19T10:14:45.955Z,12.37
2017-10-19T10:20:14.115Z,4.50
2017-10-19T10:25:42.264Z,5.90
2017-10-19T10:31:10.416Z,8.80
2017-10-19T10:36:38.591Z,8.17
2017-10-19T10:42:06.741Z,5.87
2017-10-19T10:47:34.894Z,9.10
2017-10-19T10:53:03.087Z,13.13
2017-10-19T10:58:31.258Z,11.17
2017-10-19T11:04:00.178Z,13.53
2017-10-19T11:09:28.418Z,5.90
2017-10-19T11:14:56.633Z,5.83
2017-10-19T11:20:24.972Z,5.60
2017-10-19T11:25:53.188Z,8.87
2017-10-19T11:31:21.341Z,5.93
2017-10-19T11:36:50.262Z,6.17
2017-10-19T11:42:18.424Z,6.53
2017-10-19T11:47:46.575Z,9.23
2017-10-19T11:53:14.715Z,7.53
2017-10-19T11:58:42.872Z,10.00
2017-10-19T12:04:11.034Z,5.57
2017-10-19T12:09:39.195Z,5.80
2017-10-19T12:15:07.331Z,9.07
2017-10-19T12:20:35.467Z,7.70
2017-10-19T12:26:04.376Z,4.63
2017-10-19T12:31:32.696Z,4.03
2017-10-19T12:37:01.613Z,5.90
2017-10-19T12:42:29.764Z,8.73
2017-10-19T12:47:58.012Z,3.87
2017-10-19T12:53:26.156Z,3.73
2017-10-19T12:58:55.080Z,5.73
2017-10-19T13:04:23.391Z,3.97
2017-10-19T13:09:52.319Z,18.47
2017-10-19T13:15:21.393Z,5.67
2017-10-19T13:20:49.535Z,7.80
2017-10-19T13:26:17.710Z,4.80
2017-10-19T13:31:45.869Z,7.13
2017-10-19T13:37:14.028Z,7.80
2017-10-19T13:42:42.171Z,5.70
2017-10-19T13:48:10.321Z,7.27
2017-10-19T13:53:38.483Z,9.67
2017-10-19T13:59:06.641Z,8.23
2017-10-19T14:04:34.783Z,9.10
2017-10-19T14:10:02.987Z,7.90
2017-10-19T14:15:31.170Z,7.23
2017-10-19T14:21:00.101Z,5.10
2017-10-19T14:26:28.286Z,7.63
2017-10-19T14:31:56.469Z,11.93
2017-10-19T14:37:25.414Z,7.73
2017-10-19T14:42:53.592Z,6.80
2017-10-19T14:48:22.551Z,11.80
2017-10-19T14:53:50.705Z,5.20
2017-10-19T14:59:18.896Z,7.27
2017-10-19T15:04:47.816Z,6.40
2017-10-19T15:10:15.946Z,6.07
2017-10-19T15:15:44.895Z,5.50
2017-10-19T15:21:13.092Z,4.13
2017-10-19T15:26:41.226Z,7.63
2017-10-19T15:32:09.387Z,8.37
2017-10-19T15:37:38.315Z,11.50
2017-10-19T15:43:06.486Z,5.20
2017-10-19T15:48:34.651Z,9.50
2017-10-19T15:54:02.817Z,7.90
2017-10-19T15:59:31.009Z,5.87
2017-10-19T16:04:59.178Z,7.67
2017-10-19T16:10:27.353Z,14.67
2017-10-19T16:15:55.534Z,9.37
2017-10-19T16:21:23.705Z,11.37
2017-10-19T16:26:51.872Z,18.00
2017-10-19T16:32:20.795Z,26.37
2017-10-19T16:37:48.994Z,20.00
2017-10-19T16:43:17.151Z,17.47
2017-10-19T16:48:45.332Z,22.33
2017-10-19T16:54:13.487Z,18.20
2017-10-19T16:59:42.441Z,22.60
2017-10-19T17:05:10.701Z,23.57
2017-10-19T17:10:38.862Z,25.80
2017-10-19T17:16:07.026Z,30.10
2017-10-19T17:21:35.692Z,30.00
2017-10-19T17:27:03.980Z,25.73
2017-10-19T17:32:32.179Z,47.20
2017-10-19T17:38:00.358Z,22.50
2017-10-19T17:43:28.519Z,17.60
2017-10-19T17:48:56.742Z,22.83
2017-10-19T17:54:24.996Z,19.07
2017-10-19T17:59:53.209Z,22.10
2017-10-19T18:05:21.371Z,22.90
2017-10-19T18:10:50.323Z,15.57
2017-10-19T18:16:18.578Z,19.90
2017-10-19T18:21:47.667Z,19.83
2017-10-19T18:27:15.995Z,20.23
2017-10-19T18:32:44.180Z,17.20
2017-10-19T18:38:12.431Z,20.73
2017-10-19T18:43:40.644Z,17.23
2017-10-19T18:49:09.567Z,23.60
2017-10-19T18:54:37.748Z,18.30
2017-10-19T19:00:06.279Z,16.43
2017-10-19T19:05:34.731Z,18.73
2017-10-19T19:11:02.959Z,19.73
2017-10-19T19:16:32.114Z,17.00
2017-10-19T19:22:00.657Z,18.80
2017-10-19T19:27:29.086Z,24.00
2017-10-19T19:32:57.276Z,22.33
2017-10-19T19:38:25.527Z,24.60
2017-10-19T19:43:54.646Z,21.13
2017-10-19T19:49:22.822Z,18.60
2017-10-19T19:54:50.990Z,23.37
2017-10-19T20:00:19.925Z,24.67
2017-10-19T20:05:48.128Z,22.37
2017-10-19T20:11:17.498Z,24.53
2017-10-19T20:16:45.705Z,24.40
2017-10-19T20:22:13.887Z,27.10
2017-10-19T20:27:42.095Z,29.63
2017-10-19T20:33:11.029Z,24.83
2017-10-19T20:38:58.464Z,24.50
2017-10-19T20:44:27.733Z,26.17
2017-10-19T20:49:55.891Z,23.17
2017-10-19T20:55:24.065Z,27.47
2017-10-19T21:00:52.215Z,27.77
2017-10-19T21:06:20.368Z,31.17
2017-10-19T21:11:48.631Z,37.90
2017-10-19T21:17:16.783Z,33.30
2017-10-19T21:22:45.004Z,28.60
2017-10-19T21:28:13.232Z,27.20
2017-10-19T21:33:42.169Z,33.20
2017-10-19T21:39:10.648Z,27.27
2017-10-19T21:44:38.788Z,25.23
2017-10-19T21:50:06.973Z,32.30
2017-10-19T21:55:35.129Z,28.33
2017-10-19T22:01:03.289Z,29.40
2017-10-19T22:06:32.207Z,27.47
2017-10-19T22:12:00.446Z,41.20
2017-10-19T22:17:28.601Z,29.93
2017-10-19T22:22:57.810Z,30.97
2017-10-19T22:28:25.991Z,28.90
2017-10-19T22:33:54.148Z,24.83
2017-10-19T22:39:22.287Z,23.30
2017-10-19T22:44:50.486Z,25.00
2017-10-19T22:50:18.627Z,26.60
2017-10-19T22:55:46.778Z,34.80
2017-10-19T23:01:14.979Z,24.07
2017-10-19T23:06:43.172Z,27.03
2017-10-19T23:12:11.319Z,26.80
2017-10-19T23:17:39.451Z,27.50
2017-10-19T23:23:08.370Z,29.13
2017-10-19T23:28:36.533Z,30.07
2017-10-19T23:34:05.804Z,26.50
2017-10-19T23:39:33.949Z,28.13
2017-10-19T23:45:02.085Z,33.20
2017-10-19T23:50:31.042Z,37.43
2017-10-19T23:55:59.205Z,39.33
